Time;durP1;ratioP1;P1;durP2;ratioP2;P2;SDS_P1;SDS_P2;PMS_P1;PMS_P2;Temp;Humidity;BMP_temperature;BMP_pressure;BME280_temperature;BME280_humidity;BME280_pressure;Samples;Min_cycle;Max_cycle;Signal;HPM_P1;HPM_P2
2022/06/09 07:15:47;;;;;;;;;;;;;;;22.63;100.00;97621.75;5934920;23;19984;31
2022/06/09 07:18:15;;;;;;;;;;;;;;;22.45;100.00;97617.03;4877218;29;19959;-82
2022/06/09 07:20:44;;;;;;;;;;;;;;;22.04;100.00;97626.72;4876118;29;19974;-82
2022/06/09 07:23:11;;;;;;;;;;;;;;;21.95;100.00;97624.75;4878593;29;19954;-82
2022/06/09 07:25:38;;;;;;;;;;;;;;;21.74;100.00;97619.41;4883261;29;19969;-82
2022/06/09 07:28:06;;;;;;;;;;;;;;;21.53;100.00;97619.28;4882154;29;19953;-82
2022/06/09 07:30:33;;;;;;;;;;;;;;;21.18;100.00;97623.97;4884221;29;19966;-82
2022/06/09 07:33:01;;;;;;;;;;;;;;;21.20;100.00;97621.44;4884550;29;19951;-82
2022/06/09 07:35:30;;;;;;;;;;;;;;;21.04;100.00;97626.75;4883449;29;19956;-82
2022/06/09 07:37:58;;;;;;;;;;;;;;;20.97;100.00;97625.06;4882575;29;19951;-82
2022/06/09 07:40:25;;;;;;;;;;;;;;;20.91;100.00;97621.28;4880982;29;19962;-82
2022/06/09 07:42:52;;;;;;;;;;;;;;;21.06;100.00;97630.72;4876769;29;20316;-82
2022/06/09 07:45:20;;;;;;;;;;;;;;;21.21;100.00;97639.28;4879831;29;19958;-82
2022/06/09 07:47:47;;;;;;;;;;;;;;;21.18;100.00;97632.50;4883755;29;19956;-82
2022/06/09 07:50:14;;;;;;;;;;;;;;;21.26;100.00;97638.63;4884191;29;19964;-82
2022/06/09 07:52:45;;;;;;;;;;;;;;;21.36;100.00;97648.66;4871351;29;19951;-83
2022/06/09 07:55:13;;;;;;;;;;;;;;;21.34;100.00;97643.47;4878812;29;20244;-83
2022/06/09 07:57:40;;;;;;;;;;;;;;;21.43;100.00;97648.28;4884212;29;19958;-84
2022/06/09 08:00:09;;;;;;;;;;;;;;;21.28;100.00;97647.44;4884470;29;20383;-83
2022/06/09 08:02:39;;;;;;;;;;;;;;;21.29;100.00;97655.50;4882501;29;19947;-83
2022/06/09 08:05:06;;;;;;;;;;;;;;;21.15;100.00;97652.63;4883905;29;19959;-83
2022/06/09 08:07:34;;;;;;;;;;;;;;;20.92;100.00;97645.63;4878540;29;19951;-81
2022/06/09 08:10:01;;;;;;;;;;;;;;;20.95;100.00;97651.13;4872344;29;19976;-81
2022/06/09 08:12:29;;;;;;;;;;;;;;;21.03;100.00;97651.53;4883356;29;19950;-81
2022/06/09 08:14:56;;;;;;;;;;;;;;;21.06;100.00;97644.91;4883219;29;19952;-81
2022/06/09 08:17:23;;;;;;;;;;;;;;;21.01;100.00;97642.72;4883472;29;20380;-82
2022/06/09 08:19:51;;;;;;;;;;;;;;;20.84;100.00;97650.88;4872186;29;19966;-82
2022/06/09 08:22:18;;;;;;;;;;;;;;;21.05;100.00;97659.59;4881297;29;19951;-82
2022/06/09 08:24:46;;;;;;;;;;;;;;;21.18;100.00;97657.31;4883467;29;19956;-82
2022/06/09 08:27:14;;;;;;;;;;;;;;;21.47;100.00;97661.03;4882266;29;19955;-83
2022/06/09 08:29:41;;;;;;;;;;;;;;;21.42;100.00;97661.72;4883580;29;19958;-83
2022/06/09 08:32:09;;;;;;;;;;;;;;;21.43;100.00;97663.31;4872219;29;19947;-82
2022/06/09 08:34:36;;;;;;;;;;;;;;;21.57;100.00;97673.94;4880977;29;19955;-82
2022/06/09 08:37:04;;;;;;;;;;;;;;;21.70;100.00;97672.88;4883010;29;19947;-82
2022/06/09 08:39:32;;;;;;;;;;;;;;;21.79;100.00;97664.28;4883498;29;19952;-82
2022/06/09 08:42:11;;;;;;;;;;;;;;;22.08;100.00;97670.03;4882485;29;19958;-81
2022/06/09 08:44:48;;;;;;;;;;;;;;;21.98;100.00;97669.31;4881208;29;20205;-82
2022/06/09 08:47:18;;;;;;;;;;;;;;;21.88;100.00;97673.53;4882528;29;19952;-82
2022/06/09 08:49:45;;;;;;;;;;;;;;;22.07;100.00;97669.25;4881057;29;19954;-82
2022/06/09 08:52:22;;;;;;;;;;;;;;;22.22;100.00;97667.19;4882863;29;19953;-83
2022/06/09 08:54:50;;;;;;;;;;;;;;;22.48;100.00;97667.34;4877912;29;19952;-81
2022/06/09 08:57:18;;;;;;;;;;;;;;;22.47;100.00;97673.56;4882795;29;19961;-80
2022/06/09 08:59:49;;;;;;;;;;;;;;;22.60;100.00;97671.94;4881044;29;19959;-81
2022/06/09 09:02:37;;;;;;;;;;;;;;;22.53;100.00;97671.56;4882028;29;19963;-81
2022/06/09 09:05:13;;;;;;;;;;;;;;;22.74;100.00;97678.94;4882364;29;19958;-81
2022/06/09 09:07:44;;;;;;;;;;;;;;;22.85;100.00;97671.34;4882899;29;19952;-82
2022/06/09 09:10:21;;;;;;;;;;;;;;;22.73;100.00;97665.97;4878180;29;19956;-81
2022/06/09 09:12:48;;;;;;;;;;;;;;;22.60;100.00;97663.41;4883318;29;19948;-81
2022/06/09 09:15:20;;;;;;;;;;;;;;;22.18;100.00;97663.72;4882688;29;19955;-81
2022/06/09 09:17:58;;;;;;;;;;;;;;;22.24;100.00;97669.53;4883141;29;19974;-81
2022/06/09 09:20:36;;;;;;;;;;;;;;;22.35;100.00;97660.41;4878240;29;19953;-78
2022/06/09 09:23:04;;;;;;;;;;;;;;;22.40;100.00;97666.16;4882747;29;20028;-86
2022/06/09 09:25:31;;;;;;;;;;;;;;;22.50;100.00;97670.47;4883145;29;19955;-85
2022/06/09 09:28:05;;;;;;;;;;;;;;;22.43;100.00;97673.75;4883360;29;20234;-85
2022/06/09 09:30:52;;;;;;;;;;;;;;;22.74;100.00;97673.25;4882871;29;19973;-84
2022/06/09 09:33:20;;;;;;;;;;;;;;;22.49;100.00;97671.78;4882441;29;20024;-83
2022/06/09 09:35:50;;;;;;;;;;;;;;;22.57;100.00;97681.47;4883105;29;19955;-82
2022/06/09 09:38:18;;;;;;;;;;;;;;;22.63;100.00;97675.91;4883056;29;19951;-82
2022/06/09 09:40:56;;;;;;;;;;;;;;;22.42;100.00;97668.53;4880285;29;19985;-81
2022/06/09 09:43:26;;;;;;;;;;;;;;;22.39;100.00;97672.38;4888657;29;19956;-81
2022/06/09 09:45:56;;;;;;;;;;;;;;;22.38;100.00;97663.03;4881671;29;19960;-80
2022/06/09 09:48:24;;;;;;;;;;;;;;;22.17;100.00;97667.88;4877747;29;19963;-86
2022/06/09 09:50:57;;;;;;;;;;;;;;;22.35;100.00;97666.84;4882263;29;19983;-87
2022/06/09 09:53:44;;;;;;;;;;;;;;;22.41;100.00;97670.59;4879047;29;19966;-82
2022/06/09 09:56:14;;;;;;;;;;;;;;;22.30;100.00;97678.19;4874876;29;19985;-83
2022/06/09 09:58:47;;;;;;;;;;;;;;;22.34;100.00;97673.84;4881878;29;19957;-84
2022/06/09 10:08:35;;;;;;;;;;;;;;;22.33;100.00;97672.28;4876009;29;19943;-81
2022/06/09 10:10:35;;;;;;;;;;;;;;;21.83;100.00;97670.56;4863995;29;19970;-81
2022/06/09 10:13:13;;;;;;;;;;;;;;;21.91;100.00;97671.78;4878168;29;19954;-79
2022/06/09 10:15:42;;;;;;;;;;;;;;;21.71;100.00;97671.63;4863066;29;20320;-80
2022/06/09 10:18:26;;;;;;;;;;;;;;;22.00;100.00;97663.16;4863349;29;19984;-79
2022/06/09 10:21:13;;;;;;;;;;;;;;;22.10;100.00;97667.47;4863844;29;20353;-79
2022/06/09 10:23:44;;;;;;;;;;;;;;;22.15;100.00;97669.63;4863301;29;19955;-80
2022/06/09 10:26:17;;;;;;;;;;;;;;;22.05;100.00;97668.94;4863758;29;19956;-80
2022/06/09 10:29:03;;;;;;;;;;;;;;;22.11;100.00;97669.81;4863082;29;19945;-80
2022/06/09 10:31:46;;;;;;;;;;;;;;;22.24;100.00;97669.53;4870874;29;19968;-80
2022/06/09 10:34:30;;;;;;;;;;;;;;;22.36;100.00;97659.91;4878955;29;19946;-79
2022/06/09 10:37:06;;;;;;;;;;;;;;;22.42;100.00;97657.94;4881157;29;20330;-81
2022/06/09 10:39:44;;;;;;;;;;;;;;;22.57;100.00;97661.53;4880052;29;19984;-79
2022/06/09 10:42:11;;;;;;;;;;;;;;;22.78;100.00;97657.50;4880663;29;19957;-81
2022/06/09 10:44:44;;;;;;;;;;;;;;;22.80;100.00;97654.16;4880046;29;19961;-82
2022/06/09 10:56:02;;;;;;;;;;;;;;;23.42;100.00;97648.03;4884943;29;19950;-81
2022/06/09 10:58:37;;;;;;;;;;;;;;;23.56;100.00;97647.19;4884237;29;20239;-82
2022/06/09 11:01:04;;;;;;;;;;;;;;;23.29;100.00;97650.44;4883357;29;19957;-82
2022/06/09 11:03:36;;;;;;;;;;;;;;;23.34;100.00;97644.00;4881802;29;20562;-80
2022/06/09 11:06:22;;;;;;;;;;;;;;;23.44;100.00;97651.19;4883566;29;19952;-81
2022/06/09 11:08:56;;;;;;;;;;;;;;;23.59;100.00;97646.19;4884786;29;19956;-76
2022/06/09 11:11:41;;;;;;;;;;;;;;;23.57;100.00;97643.03;4884155;29;19964;-77
2022/06/09 11:14:17;;;;;;;;;;;;;;;23.50;100.00;97647.09;4882530;29;19955;-78
2022/06/09 11:17:03;;;;;;;;;;;;;;;23.51;100.00;97650.75;4884408;29;19978;-78
2022/06/09 11:19:45;;;;;;;;;;;;;;;23.27;100.00;97642.38;4873521;29;19960;-78
2022/06/09 11:22:24;;;;;;;;;;;;;;;23.22;100.00;97645.16;4884443;29;19951;-78
2022/06/09 11:24:55;;;;;;;;;;;;;;;23.08;100.00;97641.09;4884915;29;19959;-78
2022/06/09 11:27:25;;;;;;;;;;;;;;;23.14;100.00;97638.28;4884871;29;19989;-75
2022/06/09 11:29:55;;;;;;;;;;;;;;;23.21;100.00;97638.66;4884017;29;20380;-75
2022/06/09 11:32:45;;;;;;;;;;;;;;;23.36;100.00;97638.63;4878918;29;19961;-75
2022/06/09 11:35:31;;;;;;;;;;;;;;;23.65;100.00;97640.50;4882627;29;19960;-75
2022/06/09 11:38:08;;;;;;;;;;;;;;;23.93;100.00;97641.63;4873133;29;20237;-78
2022/06/09 11:40:38;;;;;;;;;;;;;;;24.01;100.00;97639.91;4884321;29;19951;-76
2022/06/09 11:43:16;;;;;;;;;;;;;;;24.06;100.00;97639.16;4884351;29;20009;-75
2022/06/09 11:45:47;;;;;;;;;;;;;;;23.98;100.00;97638.03;4884326;29;19950;-74
2022/06/09 11:48:23;;;;;;;;;;;;;;;23.73;100.00;97642.44;4883864;29;19955;-75
2022/06/09 11:50:51;;;;;;;;;;;;;;;23.73;100.00;97639.59;4884521;29;20015;-79
2022/06/09 11:53:26;;;;;;;;;;;;;;;23.44;100.00;97639.75;4883807;29;20325;-80
2022/06/09 11:56:13;;;;;;;;;;;;;;;23.58;100.00;97636.03;4883745;29;19953;-80
2022/06/09 11:58:41;;;;;;;;;;;;;;;23.64;100.00;97630.41;4883152;29;19956;-79
2022/06/09 12:01:09;;;;;;;;;;;;;;;23.81;100.00;97623.59;4870973;29;20352;-80
2022/06/09 12:03:45;;;;;;;;;;;;;;;23.63;100.00;97631.66;4879946;29;19968;-80
2022/06/09 12:06:21;;;;;;;;;;;;;;;23.66;100.00;97636.38;4884717;29;20234;-81
2022/06/09 12:09:00;;;;;;;;;;;;;;;23.86;100.00;97624.94;4883484;29;19952;-81
2022/06/09 12:11:48;;;;;;;;;;;;;;;23.80;100.00;97621.22;4884619;29;19958;-81
2022/06/09 12:14:17;;;;;;;;;;;;;;;23.55;100.00;97636.28;4884112;29;20352;-81
2022/06/09 12:17:05;;;;;;;;;;;;;;;23.62;100.00;97630.91;4883628;29;19970;-80
2022/06/09 12:19:35;;;;;;;;;;;;;;;23.69;100.00;97632.53;4881741;29;19986;-80
2022/06/09 12:22:21;;;;;;;;;;;;;;;23.64;100.00;97624.69;4883274;29;19951;-80
2022/06/09 12:25:10;;;;;;;;;;;;;;;23.91;100.00;97627.06;4883620;29;19982;-80
2022/06/09 12:27:38;;;;;;;;;;;;;;;24.16;100.00;97624.22;4860792;29;20254;-80
2022/06/09 12:30:09;;;;;;;;;;;;;;;24.11;100.00;97627.03;4884106;29;19952;-80
2022/06/09 12:32:42;;;;;;;;;;;;;;;24.28;100.00;97627.19;4883544;29;19978;-79
2022/06/09 12:35:33;;;;;;;;;;;;;;;24.35;100.00;97627.50;4882851;29;19953;-80
2022/06/09 12:38:06;;;;;;;;;;;;;;;24.45;100.00;97631.75;4870096;29;19950;-80
2022/06/09 12:40:39;;;;;;;;;;;;;;;24.06;100.00;97633.44;4880501;29;19952;-79
2022/06/09 12:43:18;;;;;;;;;;;;;;;23.95;100.00;97633.31;4882511;29;19949;-80
2022/06/09 12:45:57;;;;;;;;;;;;;;;23.97;100.00;97639.31;4878921;29;19952;-80
2022/06/09 12:48:30;;;;;;;;;;;;;;;24.22;100.00;97634.91;4880960;29;19956;-79
2022/06/09 12:50:57;;;;;;;;;;;;;;;24.26;100.00;97629.78;4882255;29;19957;-79
2022/06/09 12:53:31;;;;;;;;;;;;;;;24.32;100.00;97634.22;4882812;29;19976;-79
2022/06/09 12:56:07;;;;;;;;;;;;;;;24.52;100.00;97627.66;4876798;29;19950;-79
2022/06/09 12:58:40;;;;;;;;;;;;;;;24.42;100.00;97637.69;4879487;29;20237;-79
2022/06/09 13:01:15;;;;;;;;;;;;;;;24.18;100.00;97638.78;4869460;29;19955;-79
2022/06/09 13:03:56;;;;;;;;;;;;;;;24.22;100.00;97635.69;4879636;29;19948;-75
2022/06/09 13:06:34;;;;;;;;;;;;;;;24.24;100.00;97635.97;4871462;29;19946;-78
2022/06/09 13:09:16;;;;;;;;;;;;;;;24.15;100.00;97625.53;4881042;29;19949;-88
2022/06/09 13:14:34;;;;;;;;;;;;;;;24.08;100.00;97631.69;4875490;29;19944;-83
2022/06/09 13:17:07;;;;;;;;;;;;;;;24.28;100.00;97621.47;4882359;29;19975;-82
2022/06/09 13:19:36;;;;;;;;;;;;;;;24.37;100.00;97629.84;4880729;29;19948;-83
2022/06/09 13:22:06;;;;;;;;;;;;;;;24.34;100.00;97625.94;4873451;29;19955;-80
2022/06/09 13:24:39;;;;;;;;;;;;;;;24.47;100.00;97636.97;4879810;29;19950;-81
2022/06/09 13:27:12;;;;;;;;;;;;;;;24.50;100.00;97635.94;4878420;29;19956;-81
2022/06/09 13:29:51;;;;;;;;;;;;;;;24.59;100.00;97636.53;4879945;29;19964;-80
2022/06/09 13:32:20;;;;;;;;;;;;;;;24.40;100.00;97643.94;4876675;29;19967;-80
2022/06/09 13:34:50;;;;;;;;;;;;;;;24.47;100.00;97646.31;4879852;29;19951;-81
2022/06/09 13:37:20;;;;;;;;;;;;;;;24.50;100.00;97644.53;4882045;29;20249;-75
2022/06/09 13:40:00;;;;;;;;;;;;;;;24.46;100.00;97641.09;4882274;29;20220;-79
2022/06/09 13:42:29;;;;;;;;;;;;;;;24.39;100.00;97638.69;4882554;29;19953;-79
2022/06/09 13:44:59;;;;;;;;;;;;;;;24.33;100.00;97638.66;4877625;29;19956;-79
2022/06/09 13:47:28;;;;;;;;;;;;;;;24.42;100.00;97643.41;4865721;29;19974;-79
2022/06/09 13:50:04;;;;;;;;;;;;;;;24.33;100.00;97640.75;4882310;29;20357;-79
2022/06/09 13:52:33;;;;;;;;;;;;;;;24.36;100.00;97639.69;4882320;29;19978;-80
2022/06/09 13:55:01;;;;;;;;;;;;;;;24.44;100.00;97632.25;4876843;29;19964;-79
2022/06/09 13:57:35;;;;;;;;;;;;;;;24.53;100.00;97637.78;4881989;29;19957;-79
2022/06/09 14:00:05;;;;;;;;;;;;;;;24.45;100.00;97630.97;4882187;29;19950;-79
2022/06/09 14:02:47;;;;;;;;;;;;;;;24.64;100.00;97632.16;4882289;29;19952;-79
2022/06/09 14:05:14;;;;;;;;;;;;;;;24.59;100.00;97627.97;4882158;29;19950;-79
2022/06/09 14:07:41;;;;;;;;;;;;;;;24.68;100.00;97633.47;4882442;29;19956;-79
2022/06/09 14:10:17;;;;;;;;;;;;;;;24.63;100.00;97642.00;4882335;29;20014;-79
2022/06/09 14:12:44;;;;;;;;;;;;;;;24.65;100.00;97636.56;4882651;29;19969;-79
2022/06/09 14:15:12;;;;;;;;;;;;;;;24.49;100.00;97628.66;4882085;29;20347;-81
2022/06/09 14:17:39;;;;;;;;;;;;;;;24.61;100.00;97636.03;4881102;29;20396;-78
2022/06/09 14:20:07;;;;;;;;;;;;;;;24.50;100.00;97639.56;4881851;29;19958;-82
2022/06/09 14:22:34;;;;;;;;;;;;;;;24.49;100.00;97640.88;4882648;29;19955;-79
2022/06/09 14:25:02;;;;;;;;;;;;;;;24.35;100.00;97641.81;4882228;29;19959;-79
2022/06/09 14:27:29;;;;;;;;;;;;;;;24.49;100.00;97648.66;4881639;29;19957;-79
2022/06/09 14:29:57;;;;;;;;;;;;;;;24.41;100.00;97651.19;4882326;29;19954;-79
2022/06/09 14:32:24;;;;;;;;;;;;;;;24.51;100.00;97660.38;4882074;29;20264;-79
2022/06/09 14:34:52;;;;;;;;;;;;;;;24.37;100.00;97647.00;4877254;29;19964;-79
2022/06/09 14:37:20;;;;;;;;;;;;;;;24.23;100.00;97657.28;4879082;29;19951;-79
2022/06/09 14:39:50;;;;;;;;;;;;;;;24.20;100.00;97660.34;4882367;29;19958;-80
2022/06/09 14:42:18;;;;;;;;;;;;;;;23.96;100.00;97657.75;4881915;29;19958;-79
2022/06/09 14:44:46;;;;;;;;;;;;;;;23.84;100.00;97668.25;4881750;29;19962;-79
2022/06/09 14:47:15;;;;;;;;;;;;;;;23.62;100.00;97670.09;4881604;29;19953;-79
2022/06/09 14:49:43;;;;;;;;;;;;;;;23.58;100.00;97672.34;4881432;29;19950;-79
2022/06/09 14:52:12;;;;;;;;;;;;;;;23.45;100.00;97673.50;4881656;29;19951;-80
2022/06/09 14:54:39;;;;;;;;;;;;;;;23.30;100.00;97680.53;4881981;29;19980;-80
2022/06/09 14:57:08;;;;;;;;;;;;;;;23.19;100.00;97689.72;4882074;29;19963;-80
2022/06/09 14:59:35;;;;;;;;;;;;;;;23.04;100.00;97688.19;4881700;29;19958;-80
2022/06/09 15:02:02;;;;;;;;;;;;;;;22.95;100.00;97709.06;4881931;29;19955;-80
2022/06/09 15:04:30;;;;;;;;;;;;;;;22.22;100.00;97727.00;4881770;29;19949;-80
2022/06/09 15:06:57;;;;;;;;;;;;;;;21.75;100.00;97734.81;4881987;29;19949;-79
2022/06/09 15:09:26;;;;;;;;;;;;;;;21.27;100.00;97731.22;4881175;29;19956;-80
2022/06/09 15:11:54;;;;;;;;;;;;;;;21.07;100.00;97734.63;4876612;29;19954;-80
2022/06/09 15:14:21;;;;;;;;;;;;;;;20.74;100.00;97734.59;4881465;29;20705;-81
2022/06/09 15:16:57;;;;;;;;;;;;;;;20.43;100.00;97741.78;4881952;29;19979;-81
2022/06/09 15:19:24;;;;;;;;;;;;;;;20.04;100.00;97738.69;4881443;29;19949;-79
2022/06/09 15:21:52;;;;;;;;;;;;;;;19.86;100.00;97730.19;4881363;29;19956;-79
2022/06/09 15:24:20;;;;;;;;;;;;;;;19.71;100.00;97725.63;4881870;29;20261;-79
2022/06/09 15:26:47;;;;;;;;;;;;;;;19.70;100.00;97722.00;4881167;29;19955;-80
2022/06/09 15:29:15;;;;;;;;;;;;;;;19.64;100.00;97723.88;4882072;29;19951;-81
2022/06/09 15:31:42;;;;;;;;;;;;;;;19.76;100.00;97733.50;4883466;29;20458;-80
2022/06/09 15:34:09;;;;;;;;;;;;;;;19.87;100.00;97736.66;4885681;29;19982;-82
2022/06/09 15:36:37;;;;;;;;;;;;;;;19.91;100.00;97726.72;4884964;29;20219;-81
2022/06/09 15:39:04;;;;;;;;;;;;;;;19.98;100.00;97719.91;4885338;29;19951;-81
2022/06/09 15:41:33;;;;;;;;;;;;;;;19.98;100.00;97743.41;4884611;29;19953;-81
2022/06/09 15:44:00;;;;;;;;;;;;;;;20.13;100.00;97747.19;4885956;29;20253;-81
2022/06/09 15:46:28;;;;;;;;;;;;;;;20.10;100.00;97748.13;4884631;29;19950;-80
2022/06/09 15:49:07;;;;;;;;;;;;;;;20.19;100.00;97744.50;4883166;29;19953;-81
2022/06/09 15:51:38;;;;;;;;;;;;;;;20.26;100.00;97750.69;4883857;29;19961;-80
2022/06/09 15:54:05;;;;;;;;;;;;;;;20.29;100.00;97758.25;4870088;29;19966;-80
2022/06/09 15:56:32;;;;;;;;;;;;;;;20.28;100.00;97753.03;4883187;29;19956;-80
2022/06/09 15:59:00;;;;;;;;;;;;;;;20.38;100.00;97748.13;4882491;29;19948;-81
2022/06/09 16:01:27;;;;;;;;;;;;;;;20.42;100.00;97748.75;4876173;29;19956;-80
2022/06/09 16:03:54;;;;;;;;;;;;;;;20.30;100.00;97742.78;4885084;29;19966;-81
2022/06/09 16:06:22;;;;;;;;;;;;;;;20.40;100.00;97751.25;4871646;29;19987;-80
2022/06/09 16:08:49;;;;;;;;;;;;;;;20.44;100.00;97746.22;4883749;29;19954;-81
2022/06/09 16:11:17;;;;;;;;;;;;;;;20.43;100.00;97742.59;4885053;29;19979;-81
2022/06/09 16:13:45;;;;;;;;;;;;;;;20.49;100.00;97746.34;4880789;29;19964;-81
2022/06/09 16:16:12;;;;;;;;;;;;;;;20.44;100.00;97746.22;4882743;29;20426;-81
2022/06/09 16:18:40;;;;;;;;;;;;;;;20.45;100.00;97733.56;4883917;29;19951;-80
2022/06/09 16:21:07;;;;;;;;;;;;;;;20.43;100.00;97728.38;4880295;29;19969;-81
2022/06/09 16:23:34;;;;;;;;;;;;;;;20.50;100.00;97725.22;4877437;29;19947;-81
2022/06/09 16:26:01;;;;;;;;;;;;;;;20.46;100.00;97721.75;4883244;29;19979;-81
2022/06/09 16:28:31;;;;;;;;;;;;;;;20.43;100.00;97744.63;4882944;29;19950;-82
2022/06/09 16:30:58;;;;;;;;;;;;;;;20.36;100.00;97731.56;4883998;29;19947;-80
2022/06/09 16:33:25;;;;;;;;;;;;;;;20.38;100.00;97742.44;4883237;29;19981;-81
2022/06/09 16:35:56;;;;;;;;;;;;;;;20.26;100.00;97739.31;4884156;29;19952;-81
2022/06/09 16:38:23;;;;;;;;;;;;;;;20.17;100.00;97739.28;4884136;29;19953;-81
2022/06/09 16:40:50;;;;;;;;;;;;;;;20.28;100.00;97745.31;4884259;29;19947;-80
2022/06/09 16:43:19;;;;;;;;;;;;;;;20.25;100.00;97746.25;4870242;29;19949;-80
2022/06/09 16:45:46;;;;;;;;;;;;;;;20.28;100.00;97762.34;4883563;29;19955;-71
2022/06/09 16:48:14;;;;;;;;;;;;;;;20.21;100.00;97756.97;4883007;29;20290;-71
2022/06/09 16:50:41;;;;;;;;;;;;;;;20.18;100.00;97768.47;4884443;29;19957;-71
2022/06/09 16:53:09;;;;;;;;;;;;;;;20.07;100.00;97771.81;4883955;29;19949;-71
2022/06/09 16:55:37;;;;;;;;;;;;;;;20.07;100.00;97768.97;4883774;29;19984;-72
2022/06/09 16:58:06;;;;;;;;;;;;;;;20.04;100.00;97772.75;4883603;29;20223;-72
2022/06/09 17:00:34;;;;;;;;;;;;;;;20.02;100.00;97763.94;4883121;29;19955;-72
2022/06/09 17:03:09;;;;;;;;;;;;;;;20.00;100.00;97769.25;4883858;29;19955;-72
2022/06/09 17:05:39;;;;;;;;;;;;;;;19.96;100.00;97774.31;4884041;29;19961;-72
2022/06/09 17:08:06;;;;;;;;;;;;;;;19.98;100.00;97768.94;4884119;29;19958;-72
2022/06/09 17:10:38;;;;;;;;;;;;;;;20.00;100.00;97779.84;4883723;29;19955;-72
2022/06/09 17:13:05;;;;;;;;;;;;;;;19.96;100.00;97782.03;4883886;29;19954;-72
2022/06/09 17:15:33;;;;;;;;;;;;;;;19.92;100.00;97779.38;4883773;29;19997;-72
2022/06/09 17:18:01;;;;;;;;;;;;;;;19.93;100.00;97783.78;4883967;29;19979;-72
2022/06/09 17:20:35;;;;;;;;;;;;;;;19.87;100.00;97782.84;4883411;29;20250;-72
2022/06/09 17:23:03;;;;;;;;;;;;;;;19.98;100.00;97785.97;4883263;29;19957;-72
2022/06/09 17:25:31;;;;;;;;;;;;;;;19.94;100.00;97787.41;4882943;29;19957;-72
2022/06/09 17:27:58;;;;;;;;;;;;;;;19.94;100.00;97798.75;4882839;29;20014;-72
2022/06/09 17:30:26;;;;;;;;;;;;;;;19.95;100.00;97801.13;4883621;29;20220;-72
2022/06/09 17:32:57;;;;;;;;;;;;;;;20.01;100.00;97801.28;4883514;29;19951;-72
2022/06/09 17:35:25;;;;;;;;;;;;;;;19.94;100.00;97810.91;4882855;29;19973;-72
2022/06/09 17:37:53;;;;;;;;;;;;;;;19.92;100.00;97806.97;4883113;29;19956;-72
2022/06/09 17:40:21;;;;;;;;;;;;;;;19.89;100.00;97805.06;4883043;29;19947;-71
2022/06/09 17:42:49;;;;;;;;;;;;;;;19.87;100.00;97816.91;4883312;29;19947;-71
2022/06/09 17:45:17;;;;;;;;;;;;;;;19.91;100.00;97820.34;4883239;29;19947;-72
2022/06/09 17:47:48;;;;;;;;;;;;;;;19.92;100.00;97819.09;4883331;29;19953;-72
2022/06/09 17:50:17;;;;;;;;;;;;;;;19.91;100.00;97819.56;4883368;29;19947;-72
2022/06/09 17:52:45;;;;;;;;;;;;;;;19.94;100.00;97819.41;4882817;29;19959;-72
2022/06/09 17:55:14;;;;;;;;;;;;;;;20.02;100.00;97823.53;4882082;29;19965;-71
2022/06/09 17:57:41;;;;;;;;;;;;;;;20.01;100.00;97826.81;4882983;29;19947;-71
2022/06/09 18:00:12;;;;;;;;;;;;;;;20.00;100.00;97826.03;4882745;29;19950;-71
2022/06/09 18:02:40;;;;;;;;;;;;;;;20.01;100.00;97826.81;4882652;29;19951;-71
2022/06/09 18:05:09;;;;;;;;;;;;;;;20.04;98.38;97826.69;4882871;29;19963;-71
2022/06/09 18:07:37;;;;;;;;;;;;;;;20.09;100.00;97828.88;4882889;29;19955;-71
2022/06/09 18:10:06;;;;;;;;;;;;;;;20.16;97.19;97830.63;4882661;29;19955;-71
2022/06/09 18:12:33;;;;;;;;;;;;;;;20.06;100.00;97829.03;4882612;29;19948;-71
2022/06/09 18:15:04;;;;;;;;;;;;;;;20.04;98.54;97826.69;4882321;29;20347;-71
2022/06/09 18:17:31;;;;;;;;;;;;;;;20.01;98.01;97824.78;4877040;29;20350;-71
2022/06/09 18:19:59;;;;;;;;;;;;;;;20.00;98.74;97830.94;4882820;29;20358;-71
2022/06/09 18:22:26;;;;;;;;;;;;;;;19.92;98.83;97830.47;4882354;29;20237;-70
2022/06/09 18:24:53;;;;;;;;;;;;;;;19.93;97.32;97826.34;4882622;29;19958;-70
2022/06/09 18:27:20;;;;;;;;;;;;;;;19.97;98.39;97832.66;4882588;29;19951;-71
2022/06/09 18:29:48;;;;;;;;;;;;;;;19.92;97.24;97829.66;4882344;29;19948;-71
2022/06/09 18:32:15;;;;;;;;;;;;;;;19.93;96.38;97834.09;4882617;29;19956;-71
2022/06/09 18:34:43;;;;;;;;;;;;;;;19.90;99.09;97837.88;4882402;29;19965;-70
2022/06/09 18:37:11;;;;;;;;;;;;;;;19.82;98.55;97833.75;4882569;29;19950;-71
2022/06/09 18:39:38;;;;;;;;;;;;;;;19.77;100.00;97829.50;4882201;29;19955;-71
2022/06/09 18:42:08;;;;;;;;;;;;;;;19.79;96.44;97841.16;4883047;29;19955;-71
2022/06/09 18:44:36;;;;;;;;;;;;;;;19.84;96.94;97834.84;4881936;29;19949;-71
2022/06/09 18:47:03;;;;;;;;;;;;;;;19.73;100.00;97833.75;4882543;29;19955;-70
2022/06/09 18:49:31;;;;;;;;;;;;;;;19.70;98.70;97829.78;4882577;29;20373;-70
2022/06/09 18:51:58;;;;;;;;;;;;;;;19.76;97.15;97841.31;4879524;29;19950;-70
2022/06/09 18:54:25;;;;;;;;;;;;;;;19.69;97.57;97839.56;4881523;29;19967;-70
2022/06/09 18:56:52;;;;;;;;;;;;;;;19.65;99.08;97844.59;4882034;29;19955;-70
2022/06/09 18:59:20;;;;;;;;;;;;;;;19.75;96.65;97854.72;4881974;29;20370;-70
2022/06/09 19:01:47;;;;;;;;;;;;;;;19.74;96.35;97843.81;4882023;29;19958;-69
2022/06/09 19:04:14;;;;;;;;;;;;;;;19.75;96.57;97845.41;4881058;29;19955;-69
2022/06/09 19:06:42;;;;;;;;;;;;;;;19.69;98.64;97848.06;4884329;29;20327;-69
2022/06/09 19:09:10;;;;;;;;;;;;;;;19.63;98.50;97862.09;4885926;29;19960;-70
2022/06/09 19:11:37;;;;;;;;;;;;;;;19.74;98.34;97855.16;4885577;29;19962;-70
2022/06/09 19:14:07;;;;;;;;;;;;;;;19.63;97.62;97864.94;4885665;29;19952;-70
2022/06/09 19:16:36;;;;;;;;;;;;;;;19.63;100.00;97867.78;4885996;29;19999;-69
2022/06/09 19:19:03;;;;;;;;;;;;;;;19.61;97.00;97864.59;4885644;29;19952;-69
2022/06/09 19:21:30;;;;;;;;;;;;;;;19.56;97.50;97864.44;4885385;29;19955;-69
2022/06/09 19:23:57;;;;;;;;;;;;;;;19.58;98.18;97867.59;4885481;29;19984;-70
2022/06/09 19:26:25;;;;;;;;;;;;;;;19.52;98.57;97875.91;4885669;29;19948;-71
2022/06/09 19:28:54;;;;;;;;;;;;;;;19.52;98.13;97880.78;4885113;29;20331;-70
2022/06/09 19:31:22;;;;;;;;;;;;;;;19.51;97.93;97890.56;4884708;29;19955;-70
2022/06/09 19:33:49;;;;;;;;;;;;;;;19.49;97.46;97884.56;4885128;29;19951;-69
2022/06/09 19:36:22;;;;;;;;;;;;;;;19.56;96.59;97893.56;4885435;29;19979;-70
2022/06/09 19:38:50;;;;;;;;;;;;;;;19.48;99.12;97894.34;4884950;29;19951;-70
2022/06/09 19:41:17;;;;;;;;;;;;;;;19.59;98.56;97903.19;4885191;29;20366;-70
2022/06/09 19:43:46;;;;;;;;;;;;;;;19.55;96.98;97905.41;4885357;29;19949;-69
2022/06/09 19:46:17;;;;;;;;;;;;;;;19.56;98.63;97910.59;4884881;29;19956;-70
2022/06/09 19:48:45;;;;;;;;;;;;;;;19.58;98.62;97918.66;4871604;29;20222;-70
2022/06/09 19:51:12;;;;;;;;;;;;;;;19.58;97.69;97915.81;4885142;29;20344;-70
2022/06/09 19:53:40;;;;;;;;;;;;;;;19.55;100.00;97922.41;4884678;29;19955;-69
2022/06/09 19:56:10;;;;;;;;;;;;;;;19.53;100.00;97924.94;4884897;29;19978;-70
2022/06/09 19:58:38;;;;;;;;;;;;;;;19.51;100.00;97924.59;4884879;29;19958;-70
2022/06/09 20:01:06;;;;;;;;;;;;;;;19.46;100.00;97930.88;4885236;29;19970;-69
2022/06/09 20:03:34;;;;;;;;;;;;;;;19.38;100.00;97932.41;4884660;29;19953;-70
2022/06/09 20:06:03;;;;;;;;;;;;;;;19.33;100.00;97935.81;4884579;29;19964;-69
2022/06/09 20:08:31;;;;;;;;;;;;;;;19.21;100.00;97942.38;4884390;29;19954;-70
2022/06/09 20:10:58;;;;;;;;;;;;;;;19.16;100.00;97942.97;4884810;29;19951;-70
2022/06/09 20:13:26;;;;;;;;;;;;;;;19.10;100.00;97942.03;4884065;29;19949;-70
2022/06/09 20:15:53;;;;;;;;;;;;;;;19.05;100.00;97954.72;4884609;29;19971;-69
2022/06/09 20:18:22;;;;;;;;;;;;;;;18.97;100.00;97953.44;4883825;29;19957;-69
2022/06/09 20:20:57;;;;;;;;;;;;;;;18.96;100.00;97949.00;4883052;29;19957;-70
2022/06/09 20:23:26;;;;;;;;;;;;;;;18.94;100.00;97945.84;4881940;29;19959;-70
2022/06/09 20:25:55;;;;;;;;;;;;;;;18.89;100.00;97950.06;4871863;29;20243;-69
2022/06/09 20:28:24;;;;;;;;;;;;;;;18.90;100.00;97954.47;4866348;29;19948;-69